createdAt,value
2018-02-05T00:02:02.140Z,83.07
2018-02-05T00:04:29.809Z,83.47
2018-02-05T00:06:57.409Z,83.15
2018-02-05T00:09:24.976Z,83.15
2018-02-05T00:11:52.542Z,83.11
2018-02-05T00:14:20.072Z,83.25
2018-02-05T00:16:47.607Z,83.02
2018-02-05T00:19:15.163Z,82.88
2018-02-05T00:21:42.936Z,83.07
2018-02-05T00:24:10.510Z,82.91
2018-02-05T00:26:38.364Z,83.15
2018-02-05T00:29:05.884Z,82.76
2018-02-05T00:31:33.504Z,83.12
2018-02-05T00:34:01.043Z,83.09
2018-02-05T00:36:28.557Z,82.84
2018-02-05T00:38:56.103Z,82.48
2018-02-05T00:41:23.862Z,82.91
2018-02-05T00:43:51.686Z,82.53
2018-02-05T00:46:19.213Z,82.36
2018-02-05T00:48:46.977Z,82.27
2018-02-05T00:51:14.519Z,82.37
2018-02-05T00:53:42.146Z,82.85
2018-02-05T00:56:09.682Z,82.35
2018-02-05T00:58:37.193Z,82.03
2018-02-05T01:01:04.756Z,81.60
2018-02-05T01:03:32.286Z,81.64
2018-02-05T01:05:59.878Z,81.90
2018-02-05T01:08:27.534Z,81.61
2018-02-05T01:10:55.097Z,82.08
2018-02-05T01:13:22.626Z,82.06
2018-02-05T01:15:50.155Z,82.00
2018-02-05T01:18:17.715Z,82.29
2018-02-05T01:20:45.321Z,81.76
2018-02-05T01:23:12.867Z,81.79
2018-02-05T01:25:40.421Z,81.97
2018-02-05T01:28:08.403Z,82.00
2018-02-05T01:30:36.010Z,82.04
2018-02-05T01:33:03.536Z,81.61
2018-02-05T01:35:31.303Z,82.04
2018-02-05T01:37:58.859Z,82.67
2018-02-05T01:40:26.386Z,81.90
2018-02-05T01:42:53.917Z,81.98
2018-02-05T01:45:21.478Z,82.23
2018-02-05T01:47:49.039Z,82.46
2018-02-05T01:50:16.628Z,82.61
2018-02-05T01:52:44.166Z,81.95
2018-02-05T01:55:11.784Z,81.65
2018-02-05T01:57:39.321Z,81.68
2018-02-05T02:00:07.407Z,82.01
2018-02-05T02:02:35.010Z,81.68
2018-02-05T02:05:02.557Z,81.36
2018-02-05T02:07:30.121Z,81.71
2018-02-05T02:09:57.732Z,81.87
2018-02-05T02:12:25.270Z,81.85
2018-02-05T02:14:53.076Z,81.90
2018-02-05T02:17:20.661Z,82.16
2018-02-05T02:19:48.284Z,82.00
2018-02-05T02:22:15.855Z,81.90
2018-02-05T02:24:43.411Z,81.27
2018-02-05T02:27:10.938Z,81.54
2018-02-05T02:29:38.468Z,81.86
2018-02-05T02:32:06.019Z,82.11
2018-02-05T02:34:33.570Z,81.50
2018-02-05T02:37:01.136Z,80.93
2018-02-05T02:39:28.680Z,81.07
2018-02-05T02:41:56.247Z,81.50
2018-02-05T02:44:23.793Z,81.79
2018-02-05T02:46:51.356Z,81.73
2018-02-05T02:49:18.908Z,81.89
2018-02-05T02:51:46.428Z,81.36
2018-02-05T02:54:13.961Z,81.83
2018-02-05T02:56:41.534Z,82.26
2018-02-05T02:59:09.166Z,81.68
2018-02-05T03:01:36.753Z,81.43
2018-02-05T03:04:04.288Z,81.49
2018-02-05T03:06:31.809Z,81.93
2018-02-05T03:08:59.725Z,82.28
2018-02-05T03:11:27.285Z,81.49
2018-02-05T03:13:54.798Z,81.15
2018-02-05T03:16:22.723Z,81.28
2018-02-05T03:18:50.254Z,81.47
2018-02-05T03:21:17.811Z,81.85
2018-02-05T03:23:45.420Z,81.48
2018-02-05T03:26:13.238Z,81.04
2018-02-05T03:28:40.900Z,80.58
2018-02-05T03:31:08.456Z,80.63
2018-02-05T03:33:35.991Z,80.98
2018-02-05T03:36:03.596Z,80.92
2018-02-05T03:38:31.105Z,80.73
2018-02-05T03:40:58.939Z,80.38
2018-02-05T03:43:26.504Z,80.44
2018-02-05T03:45:54.052Z,80.21
2018-02-05T03:48:21.582Z,79.84
2018-02-05T03:50:49.113Z,79.74
2018-02-05T03:53:16.714Z,80.31
2018-02-05T03:55:44.260Z,80.79
2018-02-05T03:58:11.802Z,81.04
2018-02-05T04:00:39.376Z,80.66
2018-02-05T04:03:06.936Z,80.65
2018-02-05T04:05:34.741Z,80.67
2018-02-05T04:08:02.332Z,79.87
2018-02-05T04:10:29.873Z,79.47
2018-02-05T04:12:57.409Z,79.90
2018-02-05T04:15:24.997Z,80.52
2018-02-05T04:17:52.533Z,80.50
2018-02-05T04:20:20.080Z,80.33
2018-02-05T04:22:47.632Z,80.44
2018-02-05T04:25:15.166Z,80.53
2018-02-05T04:27:42.727Z,80.61
2018-02-05T04:30:10.381Z,80.38
2018-02-05T04:32:37.921Z,80.45
2018-02-05T04:35:05.571Z,79.93
2018-02-05T04:37:33.444Z,80.15
2018-02-05T04:40:01.005Z,80.27
2018-02-05T04:42:28.586Z,79.75
2018-02-05T04:44:56.096Z,79.25
2018-02-05T04:47:23.648Z,79.22
2018-02-05T04:49:51.228Z,78.95
2018-02-05T04:52:18.808Z,78.79
2018-02-05T04:54:46.328Z,78.97
2018-02-05T04:57:13.869Z,79.14
2018-02-05T04:59:41.420Z,79.02
2018-02-05T05:02:09.005Z,78.84
2018-02-05T05:04:36.607Z,79.05
2018-02-05T05:07:04.160Z,78.95
2018-02-05T05:09:31.775Z,79.12
2018-02-05T05:11:59.320Z,79.22
2018-02-05T05:14:26.865Z,79.21
2018-02-05T05:16:54.386Z,79.31
2018-02-05T05:19:21.983Z,79.65
2018-02-05T05:21:49.577Z,79.51
2018-02-05T05:24:17.104Z,79.75
2018-02-05T05:26:44.672Z,79.88
2018-02-05T05:29:12.213Z,79.83
2018-02-05T05:31:39.764Z,79.77
2018-02-05T05:34:07.350Z,79.79
2018-02-05T05:36:35.270Z,79.78
2018-02-05T05:39:02.838Z,80.13
2018-02-05T05:41:30.401Z,80.42
2018-02-05T05:43:58.199Z,80.55
2018-02-05T05:46:25.715Z,80.22
2018-02-05T05:48:53.287Z,80.37
2018-02-05T05:51:21.082Z,80.94
2018-02-05T05:53:48.597Z,80.25
2018-02-05T05:56:16.202Z,80.43
2018-02-05T05:58:43.764Z,80.33
2018-02-05T06:01:11.321Z,79.83
2018-02-05T06:03:38.880Z,79.86
2018-02-05T06:06:07.122Z,80.19
2018-02-05T06:08:34.718Z,79.67
2018-02-05T06:11:02.242Z,79.60
2018-02-05T06:13:29.790Z,79.56
2018-02-05T06:15:57.350Z,79.62
2018-02-05T06:18:24.877Z,79.71
2018-02-05T06:20:52.405Z,79.24
2018-02-05T06:23:20.010Z,79.34
2018-02-05T06:25:47.537Z,79.11
2018-02-05T06:28:17.594Z,78.98
2018-02-05T06:30:45.118Z,79.08
2018-02-05T06:33:12.694Z,78.97
2018-02-05T06:35:40.237Z,78.93
2018-02-05T06:38:08.114Z,78.88
2018-02-05T06:40:35.646Z,78.97
2018-02-05T06:43:03.196Z,78.94
2018-02-05T06:45:30.756Z,79.27
2018-02-05T06:47:58.397Z,79.62
2018-02-05T06:50:37.715Z,78.94
2018-02-05T06:53:17.097Z,78.37
2018-02-05T06:55:47.619Z,78.47
2018-02-05T06:58:15.183Z,78.23
2018-02-05T07:00:43.090Z,78.40
2018-02-05T07:03:10.637Z,78.68
2018-02-05T07:05:38.222Z,79.04
2018-02-05T07:08:05.749Z,78.29
2018-02-05T07:10:33.318Z,78.29
2018-02-05T07:13:00.866Z,78.53
2018-02-05T07:15:28.397Z,78.70
2018-02-05T07:17:55.982Z,78.78
2018-02-05T07:20:23.884Z,77.75
2018-02-05T07:22:51.414Z,77.50
2018-02-05T07:25:18.996Z,77.80
2018-02-05T07:27:46.625Z,77.59
2018-02-05T07:30:14.156Z,77.35
2018-02-05T07:32:41.699Z,77.09
2018-02-05T07:35:09.220Z,76.93
2018-02-05T07:37:36.894Z,76.62
2018-02-05T07:40:04.569Z,76.44
2018-02-05T07:42:32.100Z,76.18
2018-02-05T07:44:59.685Z,75.99
2018-02-05T07:47:27.671Z,75.53
2018-02-05T07:49:55.291Z,75.10
2018-02-05T07:52:22.849Z,75.24
2018-02-05T07:54:50.414Z,75.34
2018-02-05T07:57:18.664Z,75.14
2018-02-05T07:59:46.209Z,74.15
2018-02-05T08:02:13.725Z,74.36
2018-02-05T08:04:41.324Z,75.07
2018-02-05T08:07:08.849Z,74.88
2018-02-05T08:09:36.400Z,74.30
2018-02-05T08:12:03.947Z,73.56
2018-02-05T08:14:31.768Z,73.51
2018-02-05T08:16:59.334Z,72.57
2018-02-05T08:19:27.190Z,71.96
2018-02-05T08:21:54.734Z,71.73
2018-02-05T08:24:22.297Z,71.68
2018-02-05T08:26:49.851Z,72.15
2018-02-05T08:29:17.740Z,72.21
2018-02-05T08:31:45.299Z,72.36
2018-02-05T08:34:12.858Z,71.69
2018-02-05T08:36:40.622Z,71.34
2018-02-05T08:39:08.490Z,70.50
2018-02-05T08:41:36.086Z,70.64
2018-02-05T08:44:03.632Z,70.02
2018-02-05T08:46:31.149Z,70.29
2018-02-05T08:48:58.750Z,70.12
2018-02-05T08:51:26.282Z,69.65
2018-02-05T08:53:53.899Z,69.65
2018-02-05T08:56:21.461Z,69.63
2018-02-05T08:58:49.047Z,68.66
2018-02-05T09:01:16.858Z,68.54
2018-02-05T09:03:44.476Z,68.58
2018-02-05T09:06:12.166Z,68.37
2018-02-05T09:08:40.048Z,68.31
2018-02-05T09:11:07.716Z,66.75
2018-02-05T09:13:35.278Z,66.72
2018-02-05T09:16:02.853Z,66.59
2018-02-05T09:18:30.398Z,65.82
2018-02-05T09:20:57.925Z,65.88
2018-02-05T09:23:25.491Z,65.49
2018-02-05T09:25:53.033Z,65.04
2018-02-05T09:28:20.734Z,64.88
2018-02-05T09:30:48.367Z,64.50
2018-02-05T09:33:16.699Z,64.91
2018-02-05T09:35:44.537Z,64.31
2018-02-05T09:38:12.121Z,64.32
2018-02-05T09:40:39.764Z,64.33
2018-02-05T09:43:07.951Z,64.60
2018-02-05T09:45:35.540Z,64.38
2018-02-05T09:48:03.176Z,64.58
2018-02-05T09:50:30.723Z,65.11
2018-02-05T09:52:58.246Z,63.47
2018-02-05T09:55:25.827Z,63.57
2018-02-05T09:57:53.355Z,63.92
2018-02-05T10:00:20.903Z,62.18
2018-02-05T10:02:48.454Z,63.12
2018-02-05T10:05:15.987Z,63.28
2018-02-05T10:07:43.858Z,63.14
2018-02-05T10:10:11.402Z,62.43
2018-02-05T10:12:39.673Z,62.22
2018-02-05T10:15:07.295Z,61.37
2018-02-05T10:17:34.877Z,60.78
2018-02-05T10:20:02.425Z,60.48
2018-02-05T10:22:30.579Z,60.28
2018-02-05T10:24:58.438Z,59.94
2018-02-05T10:27:26.198Z,59.65
2018-02-05T10:29:54.154Z,58.43
2018-02-05T10:32:21.935Z,57.85
2018-02-05T10:34:50.747Z,57.85
2018-02-05T10:37:18.395Z,58.85
2018-02-05T10:39:45.992Z,58.00
2018-02-05T10:42:13.629Z,56.91
2018-02-05T10:44:41.196Z,56.94
2018-02-05T10:47:08.747Z,55.43
2018-02-05T10:49:36.389Z,54.89
2018-02-05T10:52:03.965Z,54.44
2018-02-05T10:54:31.552Z,54.44
2018-02-05T10:56:59.245Z,54.87
2018-02-05T10:59:26.829Z,52.95
2018-02-05T11:01:54.704Z,53.42
2018-02-05T11:04:22.302Z,52.17
2018-02-05T11:06:49.847Z,52.16
2018-02-05T11:09:17.383Z,51.90
2018-02-05T11:11:44.994Z,52.83
2018-02-05T11:14:12.568Z,51.93
2018-02-05T11:16:40.104Z,52.04
2018-02-05T11:19:07.632Z,52.15
2018-02-05T11:21:35.152Z,52.70
2018-02-05T11:24:02.699Z,52.48
2018-02-05T11:26:30.505Z,52.19
2018-02-05T11:28:58.045Z,51.99
2018-02-05T11:31:25.595Z,51.58
2018-02-05T11:33:53.122Z,52.06
2018-02-05T11:36:20.851Z,52.17
2018-02-05T11:38:48.828Z,52.77
2018-02-05T11:41:16.487Z,52.46
2018-02-05T11:43:44.120Z,52.60
2018-02-05T11:46:11.718Z,52.48
2018-02-05T11:48:39.325Z,52.59
2018-02-05T11:51:06.882Z,52.72
2018-02-05T11:53:34.408Z,52.00
2018-02-05T11:56:01.949Z,53.17
2018-02-05T11:58:29.477Z,52.68
2018-02-05T12:00:57.054Z,52.80
2018-02-05T12:03:24.673Z,52.92
2018-02-05T12:05:52.329Z,52.21
2018-02-05T12:08:20.158Z,52.87
2018-02-05T12:10:47.703Z,52.28
2018-02-05T12:13:15.594Z,52.05
2018-02-05T12:15:43.230Z,52.42
2018-02-05T12:18:10.873Z,52.02
2018-02-05T12:20:38.606Z,52.93
2018-02-05T12:23:06.190Z,53.16
2018-02-05T12:25:34.011Z,53.56
2018-02-05T12:28:01.568Z,53.54
2018-02-05T12:30:30.023Z,52.52
2018-02-05T12:32:57.572Z,52.46
2018-02-05T12:35:25.122Z,52.83
2018-02-05T12:37:52.700Z,53.48
2018-02-05T12:40:20.241Z,53.69
2018-02-05T12:42:47.800Z,53.19
2018-02-05T12:45:15.359Z,52.16
2018-02-05T12:47:42.994Z,51.66
2018-02-05T12:50:10.551Z,51.82
2018-02-05T12:52:38.223Z,51.79
2018-02-05T12:55:06.168Z,52.69
2018-02-05T12:57:33.734Z,52.05
2018-02-05T13:00:06.803Z,51.84
2018-02-05T13:02:34.619Z,51.65
2018-02-05T13:07:59.557Z,50.18
2018-02-05T13:10:27.096Z,50.35
2018-02-05T13:12:54.934Z,49.61
2018-02-05T13:15:22.485Z,50.12
2018-02-05T13:17:50.289Z,49.64
2018-02-05T13:20:17.865Z,49.56
2018-02-05T13:22:45.425Z,49.21
2018-02-05T13:25:12.976Z,48.95
2018-02-05T13:27:40.536Z,48.69
2018-02-05T13:30:08.054Z,49.14
2018-02-05T13:32:35.614Z,49.07
2018-02-05T13:35:03.170Z,49.39
2018-02-05T13:37:30.725Z,49.25
2018-02-05T13:39:58.261Z,49.05
2018-02-05T13:42:25.833Z,48.92
2018-02-05T13:44:53.394Z,49.04
2018-02-05T13:47:20.943Z,48.42
2018-02-05T13:49:48.755Z,47.68
2018-02-05T13:52:16.634Z,46.24
2018-02-05T13:54:44.149Z,45.66
2018-02-05T13:57:11.690Z,45.84
2018-02-05T13:59:39.231Z,46.33
2018-02-05T14:02:07.076Z,47.11
2018-02-05T14:04:34.672Z,47.40
2018-02-05T14:07:02.242Z,47.65
2018-02-05T14:09:29.764Z,48.22
2018-02-05T14:11:57.304Z,48.29
2018-02-05T14:14:24.838Z,48.30
2018-02-05T14:16:52.428Z,48.16
2018-02-05T14:19:20.306Z,48.73
2018-02-05T14:21:48.175Z,49.68
2018-02-05T14:24:15.771Z,48.99
2018-02-05T14:26:43.287Z,49.67
2018-02-05T14:29:10.863Z,49.06
2018-02-05T14:31:38.391Z,48.83
2018-02-05T14:34:05.955Z,48.00
2018-02-05T14:36:33.506Z,48.62
2018-02-05T14:39:01.040Z,48.91
2018-02-05T14:41:28.559Z,49.23
2018-02-05T14:43:56.119Z,49.53
2018-02-05T14:46:23.715Z,49.97
2018-02-05T14:48:51.257Z,49.07
2018-02-05T14:51:18.810Z,50.37
2018-02-05T14:53:46.385Z,50.52
2018-02-05T14:56:14.217Z,50.93
2018-02-05T14:58:41.790Z,51.01
2018-02-05T15:01:09.305Z,50.62
2018-02-05T15:03:36.856Z,51.08
2018-02-05T15:06:04.413Z,50.15
2018-02-05T15:08:31.940Z,48.59
2018-02-05T15:10:59.798Z,48.38
2018-02-05T15:13:27.333Z,48.16
2018-02-05T15:15:54.872Z,48.70
2018-02-05T15:18:22.498Z,48.67
2018-02-05T15:20:50.026Z,46.42
2018-02-05T15:23:17.575Z,47.05
2018-02-05T15:25:45.490Z,47.51
2018-02-05T15:28:13.011Z,47.73
2018-02-05T15:30:40.609Z,47.44
2018-02-05T15:33:08.196Z,47.60
2018-02-05T15:35:35.749Z,47.42
2018-02-05T15:38:03.279Z,47.11
2018-02-05T15:40:30.850Z,46.53
2018-02-05T15:42:58.510Z,46.69
2018-02-05T15:45:26.065Z,47.09
2018-02-05T15:47:53.601Z,46.70
2018-02-05T15:50:21.181Z,46.59
2018-02-05T15:52:48.722Z,47.18
2018-02-05T15:55:16.270Z,46.88
2018-02-05T15:57:43.856Z,47.23
2018-02-05T16:00:11.450Z,47.13
2018-02-05T16:02:38.953Z,47.26
2018-02-05T16:05:06.547Z,47.87
2018-02-05T16:07:34.079Z,48.10
2018-02-05T16:10:01.623Z,48.60
2018-02-05T16:12:29.184Z,48.59
2018-02-05T16:14:56.726Z,48.75
2018-02-05T16:17:24.326Z,49.25
2018-02-05T16:19:51.912Z,49.09
2018-02-05T16:22:19.472Z,49.61
2018-02-05T16:24:47.009Z,48.98
2018-02-05T16:27:14.678Z,49.54
2018-02-05T16:29:42.290Z,49.48
2018-02-05T16:32:10.118Z,49.47
2018-02-05T16:34:37.689Z,48.93
2018-02-05T16:37:05.238Z,49.16
2018-02-05T16:39:32.799Z,48.77
2018-02-05T16:42:00.577Z,48.54
2018-02-05T16:44:28.529Z,48.67
2018-02-05T16:46:56.090Z,48.61
2018-02-05T16:49:23.642Z,48.96
2018-02-05T16:51:51.189Z,48.96
2018-02-05T16:54:18.830Z,49.04
2018-02-05T16:56:46.358Z,49.45
2018-02-05T16:59:13.888Z,49.31
2018-02-05T17:01:41.425Z,49.47
2018-02-05T17:04:09.050Z,50.09
2018-02-05T17:06:36.596Z,49.83
2018-02-05T17:09:04.491Z,50.68
2018-02-05T17:11:32.095Z,50.48
2018-02-05T17:13:59.625Z,50.88
2018-02-05T17:16:27.317Z,50.64
2018-02-05T17:18:54.856Z,50.94
2018-02-05T17:21:22.489Z,51.21
2018-02-05T17:23:50.056Z,50.47
2018-02-05T17:26:17.629Z,50.90
2018-02-05T17:28:45.217Z,51.06
2018-02-05T17:31:12.793Z,51.69
2018-02-05T17:33:40.338Z,52.01
2018-02-05T17:36:07.890Z,52.44
2018-02-05T17:38:35.440Z,53.25
2018-02-05T17:41:03.025Z,53.57
2018-02-05T17:43:30.566Z,54.04
2018-02-05T17:45:58.137Z,54.59
2018-02-05T17:48:25.766Z,55.17
2018-02-05T17:50:53.330Z,55.73
2018-02-05T17:53:20.875Z,56.08
2018-02-05T17:55:48.500Z,56.08
2018-02-05T17:58:16.071Z,56.33
2018-02-05T18:00:44.489Z,56.29
2018-02-05T18:03:12.320Z,56.36
2018-02-05T18:05:39.869Z,56.39
2018-02-05T18:08:07.424Z,56.07
2018-02-05T18:10:35.504Z,56.30
2018-02-05T18:13:03.495Z,56.37
2018-02-05T18:15:31.030Z,56.71
2018-02-05T18:17:58.609Z,55.97
2018-02-05T18:20:26.474Z,55.91
2018-02-05T18:22:54.038Z,56.34
2018-02-05T18:25:21.574Z,56.71
2018-02-05T18:27:49.230Z,56.88
2018-02-05T18:30:17.027Z,56.83
2018-02-05T18:32:44.570Z,56.96
2018-02-05T18:35:12.189Z,57.20
2018-02-05T18:37:39.735Z,57.74
2018-02-05T18:40:07.414Z,57.75
2018-02-05T18:42:35.244Z,57.40
2018-02-05T18:45:03.124Z,56.60
2018-02-05T18:47:30.698Z,56.41
2018-02-05T18:49:58.248Z,56.67
2018-02-05T18:52:25.818Z,57.00
2018-02-05T18:54:53.421Z,57.17
2018-02-05T18:57:21.211Z,57.32
2018-02-05T18:59:48.795Z,57.34
2018-02-05T19:02:21.248Z,57.92
2018-02-05T19:04:48.881Z,57.59
2018-02-05T19:07:16.394Z,57.43
2018-02-05T19:09:43.914Z,57.66
2018-02-05T19:12:11.474Z,58.12
2018-02-05T19:14:39.014Z,58.38
2018-02-05T19:17:06.625Z,58.89
2018-02-05T19:19:34.184Z,59.18
2018-02-05T19:22:01.747Z,59.25
2018-02-05T19:24:29.439Z,59.41
2018-02-05T19:26:57.092Z,59.67
2018-02-05T19:29:24.627Z,59.96
2018-02-05T19:31:52.258Z,59.98
2018-02-05T19:34:19.906Z,59.94
2018-02-05T19:36:47.502Z,59.88
2018-02-05T19:39:15.038Z,60.14
2018-02-05T19:41:42.619Z,60.53
2018-02-05T19:44:10.186Z,60.26
2018-02-05T19:46:37.792Z,59.95
2018-02-05T19:49:05.351Z,59.79
2018-02-05T19:51:32.899Z,60.26
2018-02-05T19:54:00.461Z,59.96
2018-02-05T19:56:28.022Z,59.88
2018-02-05T19:58:55.532Z,59.47
2018-02-05T20:01:23.324Z,59.86
2018-02-05T20:03:50.867Z,60.04
2018-02-05T20:06:18.390Z,60.38
2018-02-05T20:08:45.955Z,60.43
2018-02-05T20:11:13.771Z,60.80
2018-02-05T20:13:41.639Z,60.61
2018-02-05T20:16:09.210Z,59.82
2018-02-05T20:18:36.800Z,60.06
2018-02-05T20:21:04.363Z,60.12
2018-02-05T20:23:32.193Z,60.46
2018-02-05T20:25:59.768Z,60.67
2018-02-05T20:28:27.319Z,60.72
2018-02-05T20:30:54.869Z,60.63
2018-02-05T20:33:22.471Z,60.93
2018-02-05T20:35:50.018Z,61.24
2018-02-05T20:38:17.629Z,61.22
2018-02-05T20:40:45.621Z,61.55
2018-02-05T20:43:13.173Z,61.53
2018-02-05T20:45:40.782Z,61.32
2018-02-05T20:48:08.334Z,61.10
2018-02-05T20:50:35.931Z,61.25
2018-02-05T20:53:03.504Z,60.83
2018-02-05T20:55:31.291Z,60.49
2018-02-05T20:57:58.889Z,61.16
2018-02-05T21:00:26.470Z,61.12
2018-02-05T21:02:54.058Z,61.27
2018-02-05T21:05:21.620Z,61.39
2018-02-05T21:07:49.194Z,61.84
2018-02-05T21:10:16.825Z,61.83
2018-02-05T21:12:44.933Z,61.96
2018-02-05T21:15:12.898Z,61.96
2018-02-05T21:17:40.563Z,62.01
2018-02-05T21:20:08.181Z,62.33
2018-02-05T21:22:36.809Z,62.27
2018-02-05T21:25:04.824Z,62.44
2018-02-05T21:27:32.383Z,62.03
2018-02-05T21:29:59.910Z,62.24
2018-02-05T21:32:27.528Z,61.83
2018-02-05T21:34:55.074Z,62.07
2018-02-05T21:37:22.630Z,62.19
2018-02-05T21:39:50.632Z,61.99
2018-02-05T21:42:18.427Z,61.59
2018-02-05T21:44:46.177Z,61.39
2018-02-05T21:47:13.745Z,61.37
2018-02-05T21:49:41.289Z,61.44
2018-02-05T21:52:08.821Z,61.00
2018-02-05T21:54:36.456Z,61.73
2018-02-05T21:57:04.082Z,61.60
2018-02-05T21:59:31.930Z,61.47
2018-02-05T22:01:59.841Z,61.62
2018-02-05T22:04:27.447Z,61.51
2018-02-05T22:06:55.004Z,61.47
2018-02-05T22:09:22.593Z,62.00
2018-02-05T22:11:50.141Z,62.08
2018-02-05T22:14:18.060Z,62.17
2018-02-05T22:16:45.651Z,62.33
2018-02-05T22:19:13.289Z,62.35
2018-02-05T22:21:40.903Z,61.85
2018-02-05T22:24:08.472Z,61.96
2018-02-05T22:26:36.006Z,62.05
2018-02-05T22:29:03.632Z,61.87
2018-02-05T22:31:31.158Z,61.79
2018-02-05T22:33:58.805Z,61.41
2018-02-05T22:36:26.411Z,61.61
2018-02-05T22:38:53.932Z,61.52
2018-02-05T22:41:21.523Z,61.58
2018-02-05T22:43:49.063Z,61.85
2018-02-05T22:46:16.853Z,61.93
2018-02-05T22:48:44.476Z,61.89
2018-02-05T22:51:12.015Z,62.21
2018-02-05T22:53:39.593Z,61.58
2018-02-05T22:56:07.135Z,61.50
2018-02-05T22:58:34.781Z,61.56
2018-02-05T23:01:03.067Z,61.60
2018-02-05T23:03:30.622Z,61.65
2018-02-05T23:05:58.149Z,61.75
2018-02-05T23:08:25.899Z,61.73
2018-02-05T23:10:53.422Z,61.91
2018-02-05T23:13:21.034Z,62.21
2018-02-05T23:15:48.582Z,62.32
2018-02-05T23:18:16.106Z,62.59
2018-02-05T23:20:43.702Z,62.66
2018-02-05T23:23:11.295Z,62.41
2018-02-05T23:25:38.844Z,62.06
2018-02-05T23:28:06.443Z,62.47
2018-02-05T23:30:34.120Z,61.98
2018-02-05T23:33:01.686Z,62.70
2018-02-05T23:35:29.251Z,63.11
2018-02-05T23:37:56.852Z,62.74
2018-02-05T23:40:24.476Z,62.31
2018-02-05T23:42:52.502Z,62.64
2018-02-05T23:45:20.068Z,62.98
2018-02-05T23:47:47.624Z,62.61
2018-02-05T23:50:15.282Z,62.83
2018-02-05T23:52:42.822Z,62.88
2018-02-05T23:55:10.411Z,62.97
2018-02-05T23:57:37.999Z,62.89
